Time;durP1;ratioP1;P1;durP2;ratioP2;P2;SDS_P1;SDS_P2;PMS_P1;PMS_P2;Temp;Humidity;BMP_temperature;BMP_pressure;BME280_temperature;BME280_humidity;BME280_pressure;Samples;Min_cycle;Max_cycle;Signal;HPM_P1;HPM_P2
2022/10/29 06:03:54;;;;;;;12.63;4.40;;;;;;;13.04;70.07;96238.69;5935161;23;20195;31
2022/10/29 06:32:19;;;;;;;7.03;3.60;;;;;;;13.42;67.79;96248.09;5603270;23;20293;-81
2022/10/29 06:34:45;;;;;;;11.97;3.93;;;;;;;13.52;67.11;96250.66;4824103;29;20265;-85
2022/10/29 06:37:10;;;;;;;10.43;3.70;;;;;;;13.57;66.96;96249.22;4817875;29;20221;-85
2022/10/29 07:36:30;;;;;;;8.85;3.22;;;;;;;17.32;52.93;96265.88;4942618;24;20313;-81
2022/10/29 07:38:55;;;;;;;9.10;3.45;;;;;;;17.55;52.04;96271.13;4819621;29;20194;-80
2022/10/29 07:41:20;;;;;;;9.13;4.63;;;;;;;17.72;51.32;96270.09;4804218;29;20210;-80
2022/10/29 07:43:45;;;;;;;12.25;3.85;;;;;;;17.87;51.47;96266.72;4817589;29;20198;-82
2022/10/29 08:07:42;;;;;;;9.50;3.30;;;;;;;18.88;50.29;96268.94;5139962;24;20253;-83
2022/10/29 08:15:18;;;;;;;12.05;3.90;;;;;;;19.05;53.08;96280.09;5078942;24;21033;-85
2022/10/29 08:17:57;;;;;;;12.43;4.18;;;;;;;19.13;53.04;96272.09;4825028;29;20190;-88
2022/10/29 08:20:24;;;;;;;6.82;3.53;;;;;;;19.16;53.71;96274.34;4810256;29;20201;-88
2022/10/29 08:22:53;;;;;;;7.43;3.35;;;;;;;19.19;53.24;96276.63;4811073;29;20198;-88
2022/10/29 08:25:21;;;;;;;7.63;3.53;;;;;;;19.21;52.32;96264.09;4792644;29;20297;-88
2022/10/29 08:28:00;;;;;;;10.85;3.33;;;;;;;19.35;52.15;96265.91;4808358;29;20187;-88
2022/10/29 08:30:29;;;;;;;11.40;3.45;;;;;;;19.37;52.20;96258.63;4808179;29;20238;-88
2022/10/29 08:33:00;;;;;;;10.32;3.65;;;;;;;19.42;52.09;96256.25;4808867;29;20183;-88
2022/10/29 08:35:28;;;;;;;10.27;3.45;;;;;;;19.38;52.70;96260.25;4836404;29;20186;-90
2022/10/29 08:37:58;;;;;;;11.15;4.50;;;;;;;19.48;52.43;96273.13;4834492;29;20181;-88
2022/10/29 08:40:38;;;;;;;12.65;3.40;;;;;;;19.65;52.58;96276.41;4826946;29;20210;-90
2022/10/29 08:43:45;;;;;;;10.05;3.78;;;;;;;19.79;52.04;96276.34;4847757;29;20221;-89
2022/10/29 08:46:29;;;;;;;6.00;3.30;;;;;;;19.89;52.19;96283.13;4838606;29;20222;-88
2022/10/29 08:49:10;;;;;;;9.48;3.45;;;;;;;20.04;51.77;96282.06;4826106;29;20186;-88
2022/10/29 08:51:38;;;;;;;7.82;3.45;;;;;;;20.11;51.01;96274.22;4810217;29;20189;-88
2022/10/29 08:54:03;;;;;;;16.20;3.92;;;;;;;20.26;50.51;96279.41;4799178;29;20291;-88
2022/10/29 08:56:34;;;;;;;7.60;3.75;;;;;;;20.43;49.47;96272.91;4806222;29;20730;-89
2022/10/29 08:59:09;;;;;;;7.70;3.15;;;;;;;20.58;49.46;96276.28;4793031;29;20720;-88
2022/10/29 09:01:44;;;;;;;10.73;3.65;;;;;;;20.63;50.24;96283.59;4798467;29;20234;-88
2022/10/29 09:04:27;;;;;;;13.57;4.05;;;;;;;20.83;47.46;96281.06;4807476;29;20182;-88
2022/10/29 09:07:20;;;;;;;8.45;3.65;;;;;;;21.04;47.36;96286.31;4820113;29;20830;-88
2022/10/29 09:10:07;;;;;;;8.77;3.45;;;;;;;21.39;46.37;96291.59;4806246;29;20225;-89
2022/10/29 09:13:11;;;;;;;7.47;3.58;;;;;;;21.63;46.56;96287.59;4830775;29;20191;-88
2022/10/29 09:15:53;;;;;;;8.82;3.90;;;;;;;21.82;46.58;96284.22;4807877;29;20205;-89
2022/10/29 09:18:46;;;;;;;10.65;4.00;;;;;;;22.15;45.14;96286.09;4787933;29;20194;-89
2022/10/29 09:21:30;;;;;;;10.30;3.65;;;;;;;22.36;44.92;96285.94;4821299;29;20225;-88
2022/10/29 09:24:22;;;;;;;12.30;4.10;;;;;;;22.59;42.80;96278.38;4807450;29;20273;-88
2022/10/29 09:26:59;;;;;;;9.50;4.20;;;;;;;22.75;41.44;96279.78;4836399;29;20321;-88
2022/10/29 09:29:44;;;;;;;12.80;6.35;;;;;;;22.91;41.62;96273.28;4804424;29;20186;-88
2022/10/29 09:32:22;;;;;;;10.90;4.07;;;;;;;23.01;38.73;96275.50;4826957;29;20198;-89
2022/10/29 09:34:52;;;;;;;9.25;3.70;;;;;;;23.14;38.92;96270.16;4815350;29;20281;-86
2022/10/29 09:37:57;;;;;;;12.05;3.67;;;;;;;23.30;38.63;96264.41;4816068;29;20274;-87
2022/10/29 09:40:35;;;;;;;10.40;3.65;;;;;;;23.42;36.93;96267.22;4822446;29;20205;-89
2022/10/29 09:43:22;;;;;;;13.68;3.78;;;;;;;23.49;36.66;96267.19;4828146;29;20225;-88
2022/10/29 09:45:56;;;;;;;12.07;3.83;;;;;;;23.46;37.25;96261.28;4814428;29;20214;-88
2022/10/29 09:48:28;;;;;;;9.00;3.92;;;;;;;23.52;37.02;96266.78;4790216;29;20193;-87
2022/10/29 09:51:28;;;;;;;8.57;3.22;;;;;;;23.55;39.76;96263.69;4795912;29;20264;-84
2022/10/29 10:31:26;;;;;;;12.35;4.57;;;;;;;22.46;47.78;96278.41;5669611;24;20236;-84
2022/10/29 10:56:03;;;;;;;7.68;3.53;;;;;;;23.16;50.27;96237.16;4993054;24;20257;-90
2022/10/29 10:58:52;;;;;;;13.02;4.28;;;;;;;23.13;49.82;96234.09;4807900;29;20402;-88
2022/10/29 11:01:28;;;;;;;9.73;3.83;;;;;;;23.16;49.63;96241.63;4820570;29;20221;-88
2022/10/29 11:04:25;;;;;;;10.98;3.50;;;;;;;23.16;50.03;96241.63;4822492;29;20197;-87
2022/10/29 11:06:58;;;;;;;9.55;3.92;;;;;;;23.32;48.40;96237.69;4809941;29;20209;-87
2022/10/29 11:09:34;;;;;;;8.00;3.90;;;;;;;23.27;47.80;96229.56;4807442;29;20206;-88
2022/10/29 11:12:18;;;;;;;10.40;3.58;;;;;;;23.31;47.66;96234.22;4823140;29;20678;-88
2022/10/29 11:14:51;;;;;;;12.63;4.05;;;;;;;23.29;47.83;96225.69;4822907;29;20210;-88
2022/10/29 11:17:35;;;;;;;9.18;3.58;;;;;;;23.48;46.26;96228.44;4822317;29;20190;-88
2022/10/29 11:20:29;;;;;;;11.00;3.47;;;;;;;23.41;43.72;96231.13;4821732;29;20688;-88
2022/10/29 11:23:40;;;;;;;12.27;3.70;;;;;;;23.48;43.25;96233.75;4820779;29;20281;-89
2022/10/29 11:26:44;;;;;;;9.80;3.70;;;;;;;23.57;43.82;96232.47;4837979;29;20237;-88
2022/10/29 11:29:31;;;;;;;9.20;3.83;;;;;;;23.59;44.07;96219.81;4720693;30;20241;-89
2022/10/29 11:32:42;;;;;;;7.78;4.15;;;;;;;23.66;45.33;96223.28;4759961;30;20227;-89
2022/10/29 11:35:44;;;;;;;10.82;3.80;;;;;;;23.72;44.97;96214.47;4673837;30;20240;-89
2022/10/29 11:38:39;;;;;;;9.57;3.92;;;;;;;23.72;44.74;96211.81;4644820;30;20204;-90
2022/10/29 11:41:26;;;;;;;9.38;3.58;;;;;;;23.61;44.81;96205.38;4659953;30;20230;-90
2022/10/29 11:44:08;;;;;;;10.75;4.13;;;;;;;23.70;44.51;96195.31;4662522;30;20212;-89
2022/10/29 11:47:17;;;;;;;;;;;;;;;;;;;;;
2022/10/29 11:50:04;;;;;;;9.00;4.00;;;;;;;23.95;43.26;96201.47;4667676;30;20717;-89
2022/10/29 11:53:12;;;;;;;18.20;4.20;;;;;;;23.88;43.56;96192.75;4667256;30;20203;-90
2022/10/29 12:41:39;;;;;;;8.95;3.78;;;;;;;23.90;45.90;96139.47;1374380;23;20518;-85
2022/10/29 13:13:05;;;;;;;9.77;3.70;;;;;;;24.70;44.39;96110.34;4837039;29;20208;-89
2022/10/29 15:41:11;;;;;;;12.10;3.90;;;;;;;21.49;53.30;96054.22;5035911;24;20244;-87
2022/10/29 16:26:32;;;;;;;13.85;3.88;;;;;;;20.44;55.03;96055.56;4846109;29;20232;-87
2022/10/29 16:29:00;;;;;;;10.00;4.00;;;;;;;20.41;54.85;96057.75;4855608;29;20204;-87
2022/10/29 16:31:29;;;;;;;8.57;3.40;;;;;;;20.42;54.53;96056.75;4841212;29;20215;-87
2022/10/29 16:34:01;;;;;;;10.55;3.72;;;;;;;20.36;54.80;96053.88;4840808;29;20197;-86
2022/10/29 16:36:30;;;;;;;9.35;3.53;;;;;;;20.31;54.42;96055.47;4844313;29;20200;-87
2022/10/29 16:39:04;;;;;;;10.52;3.55;;;;;;;20.33;54.56;96058.75;4846186;29;20240;-87
2022/10/29 16:41:39;;;;;;;9.85;3.70;;;;;;;20.24;55.19;96055.47;4854075;29;20233;-86
2022/10/29 16:44:23;;;;;;;16.00;3.83;;;;;;;20.31;54.45;96051.00;4834245;29;20200;-86
2022/10/29 16:46:52;;;;;;;12.30;3.58;;;;;;;20.35;54.06;96046.16;4842599;29;20205;-86
2022/10/29 16:49:28;;;;;;;7.57;3.45;;;;;;;20.28;54.20;96047.97;4833495;29;20223;-86
2022/10/29 16:51:53;;;;;;;12.70;3.45;;;;;;;20.29;53.76;96046.94;4846375;29;20207;-80
2022/10/29 16:54:18;;;;;;;7.80;2.92;;;;;;;20.27;53.54;96048.97;4867600;29;20188;-83
2022/10/29 16:56:43;;;;;;;7.60;2.83;;;;;;;20.26;53.07;96047.34;4853248;29;20192;-82
2022/10/29 16:59:09;;;;;;;16.10;3.45;;;;;;;20.26;53.19;96048.16;4847032;29;20193;-82
2022/10/29 17:01:34;;;;;;;9.90;3.88;;;;;;;20.29;53.30;96052.22;4837182;29;20869;-83
2022/10/29 17:03:59;;;;;;;9.27;3.40;;;;;;;20.28;53.16;96055.88;4836207;29;20226;-82
2022/10/29 17:06:25;;;;;;;15.60;3.67;;;;;;;20.31;52.51;96047.56;4847865;29;20357;-83
2022/10/29 17:08:50;;;;;;;6.65;3.30;;;;;;;20.40;51.94;96051.66;4844514;29;20201;-84
2022/10/29 17:11:15;;;;;;;9.88;3.22;;;;;;;20.38;51.82;96048.41;4845216;29;20228;-84
2022/10/29 17:13:40;;;;;;;14.65;3.20;;;;;;;20.33;51.78;96053.47;4847867;29;20203;-83
2022/10/29 17:16:35;;;;;;;10.13;3.65;;;;;;;20.42;51.64;96051.50;4852613;29;20189;-83
2022/10/29 17:19:00;;;;;;;11.98;3.33;;;;;;;20.39;51.48;96052.66;4854741;29;20696;-85
2022/10/29 17:21:29;;;;;;;10.15;2.80;;;;;;;20.33;51.42;96054.28;4853333;29;20228;-86
2022/10/29 17:23:54;;;;;;;15.07;3.67;;;;;;;20.36;51.45;96053.88;4835026;29;20201;-85
2022/10/29 17:26:19;;;;;;;9.88;3.85;;;;;;;20.36;50.97;96060.97;4834199;29;20711;-87
2022/10/29 17:28:45;;;;;;;11.23;3.50;;;;;;;20.40;50.96;96049.03;4848582;29;20193;-85
2022/10/29 17:31:10;;;;;;;8.20;3.35;;;;;;;20.41;51.11;96052.47;4839011;29;20561;-86
2022/10/29 17:33:36;;;;;;;6.78;3.05;;;;;;;20.43;50.82;96047.84;4842118;29;20216;-85
2022/10/29 17:36:19;;;;;;;14.52;4.00;;;;;;;20.45;50.95;96059.84;4837009;29;20712;-86
2022/10/29 17:38:45;;;;;;;9.65;3.40;;;;;;;20.50;50.34;96054.00;4856901;29;20223;-86
2022/10/29 17:41:10;;;;;;;10.88;3.63;;;;;;;20.50;50.93;96060.06;4831538;29;20248;-86
2022/10/29 17:43:35;;;;;;;10.70;3.47;;;;;;;20.47;50.86;96057.81;4845002;29;20203;-86
2022/10/29 17:46:01;;;;;;;11.43;3.20;;;;;;;20.45;50.87;96061.66;4842900;29;20295;-87
2022/10/29 17:48:26;;;;;;;17.73;3.75;;;;;;;20.46;50.68;96061.47;4857111;29;20684;-87
2022/10/29 17:50:57;;;;;;;10.02;3.08;;;;;;;20.49;50.67;96061.06;4856044;29;20681;-86
2022/10/29 17:53:23;;;;;;;13.52;3.35;;;;;;;20.47;50.64;96060.44;4840518;29;20197;-85
2022/10/29 17:55:50;;;;;;;11.60;3.70;;;;;;;20.39;50.76;96052.66;4841628;29;20199;-88
2022/10/29 17:58:17;;;;;;;10.90;3.33;;;;;;;20.40;50.69;96064.84;4842837;29;20192;-88
2022/10/29 18:00:42;;;;;;;11.27;3.53;;;;;;;20.36;50.57;96060.97;4844514;29;20208;-86
2022/10/29 18:03:08;;;;;;;7.53;2.95;;;;;;;20.33;50.40;96058.75;4843391;29;20259;-85
2022/10/29 18:05:33;;;;;;;11.88;3.42;;;;;;;20.29;50.86;96057.50;4856142;29;20242;-85
2022/10/29 18:07:58;;;;;;;12.20;3.70;;;;;;;20.31;50.72;96060.75;4850937;29;20196;-86
2022/10/29 18:10:24;;;;;;;11.93;3.83;;;;;;;20.23;51.36;96056.47;4842760;29;20208;-86
2022/10/29 18:12:49;;;;;;;13.43;3.85;;;;;;;20.16;51.71;96062.72;4857734;29;20218;-86
2022/10/29 18:15:15;;;;;;;9.60;3.35;;;;;;;20.08;51.71;96061.84;4859682;29;20299;-87
2022/10/29 18:17:40;;;;;;;10.25;3.78;;;;;;;20.03;52.40;96072.16;4838772;29;20217;-86
2022/10/29 18:20:06;;;;;;;14.07;4.05;;;;;;;19.91;52.66;96059.72;4845937;29;20217;-87
2022/10/29 18:22:31;;;;;;;10.35;3.55;;;;;;;19.84;52.88;96069.41;4834107;29;20577;-87
2022/10/29 18:24:56;;;;;;;14.45;4.32;;;;;;;19.78;53.15;96071.78;4847900;29;20200;-87
2022/10/29 18:27:22;;;;;;;9.88;3.70;;;;;;;19.66;53.61;96065.44;4853436;29;20867;-86
2022/10/29 18:29:47;;;;;;;11.27;3.90;;;;;;;19.59;53.96;96069.81;4849914;29;20317;-86
2022/10/29 18:32:12;;;;;;;7.70;3.25;;;;;;;19.52;54.08;96071.56;4831735;29;20235;-87
2022/10/29 18:34:38;;;;;;;6.43;3.30;;;;;;;19.46;54.54;96067.06;4847363;29;20192;-85
2022/10/29 18:37:05;;;;;;;7.55;2.90;;;;;;;19.39;54.50;96067.00;4851885;29;20227;-86
2022/10/29 18:39:30;;;;;;;10.70;3.75;;;;;;;19.29;54.84;96065.69;4849131;29;20244;-86
2022/10/29 18:41:56;;;;;;;8.90;3.60;;;;;;;19.15;55.90;96070.00;4830629;29;20665;-85
2022/10/29 18:44:21;;;;;;;12.05;4.18;;;;;;;19.06;55.82;96064.06;4851800;29;20212;-86
2022/10/29 18:46:47;;;;;;;13.18;3.38;;;;;;;18.91;56.71;96068.59;4847481;29;20204;-86
2022/10/29 18:49:12;;;;;;;8.95;3.17;;;;;;;18.79;57.17;96065.59;4843607;29;20649;-86
2022/10/29 18:51:37;;;;;;;12.65;3.97;;;;;;;18.66;57.96;96074.19;4858459;29;20196;-85
2022/10/29 18:54:03;;;;;;;8.85;3.10;;;;;;;18.56;57.93;96067.56;4844286;29;20672;-85
2022/10/29 18:56:29;;;;;;;11.52;3.42;;;;;;;18.47;58.53;96069.47;4845966;29;20238;-86
2022/10/29 18:58:55;;;;;;;16.38;4.20;;;;;;;18.33;60.49;96070.28;4836713;29;20245;-85
2022/10/29 19:01:22;;;;;;;9.90;3.92;;;;;;;18.24;60.41;96063.50;4842218;29;20209;-85
2022/10/29 19:04:08;;;;;;;12.90;3.55;;;;;;;18.19;61.06;96068.47;4841789;29;20196;-87
2022/10/29 19:06:35;;;;;;;11.55;4.55;;;;;;;18.06;61.23;96056.00;4839032;29;20239;-85
2022/10/29 20:01:57;;;;;;;10.00;3.10;;;;;;;17.29;59.92;96050.94;4823833;29;20711;-87
2022/10/29 20:04:29;;;;;;;9.63;2.85;;;;;;;17.38;58.35;96054.31;4824409;29;20342;-87
2022/10/29 20:06:57;;;;;;;11.20;3.15;;;;;;;17.45;57.72;96050.00;4837597;29;20241;-87
2022/10/29 20:09:26;;;;;;;10.90;3.20;;;;;;;17.45;58.24;96042.94;4812173;29;20222;-89
2022/10/29 20:11:51;;;;;;;9.68;3.15;;;;;;;17.44;58.60;96045.75;4828802;29;20197;-87
2022/10/29 20:14:35;;;;;;;11.05;3.17;;;;;;;17.44;58.58;96051.81;4832572;29;20253;-87
2022/10/29 20:17:02;;;;;;;10.25;3.58;;;;;;;17.37;59.27;96052.69;4826993;29;20178;-87
2022/10/29 20:19:38;;;;;;;10.05;3.15;;;;;;;17.35;59.05;96055.50;4836954;29;20217;-88
2022/10/29 20:22:09;;;;;;;8.23;2.90;;;;;;;17.36;58.87;96045.81;4838587;29;20186;-88
2022/10/29 20:25:33;;;;;;;;;;;;;;;;;;;;;
